createdAt,value
2023-04-15T00:00:17.889Z,4.94
2023-04-15T00:05:23.934Z,4.96
2023-04-15T00:10:27.922Z,4.47
2023-04-15T00:15:33.199Z,4.50
2023-04-15T00:20:37.283Z,4.75
2023-04-15T00:25:41.812Z,4.76
2023-04-15T00:30:47.462Z,4.79
2023-04-15T00:35:51.939Z,4.82
2023-04-15T00:40:56.950Z,4.86
2023-04-15T00:46:04.161Z,4.75
2023-04-15T00:51:08.582Z,4.55
2023-04-15T00:56:13.716Z,4.78
2023-04-15T01:01:22.419Z,4.93
2023-04-15T01:06:27.353Z,5.05
2023-04-15T01:11:33.588Z,5.00
2023-04-15T01:16:41.151Z,4.92
2023-04-15T01:21:45.143Z,4.69
2023-04-15T01:26:51.139Z,4.78
2023-04-15T01:31:56.941Z,4.51
2023-04-15T01:37:21.945Z,4.19
2023-04-15T01:42:29.242Z,4.15
2023-04-15T01:47:35.786Z,4.12
2023-04-15T01:52:41.251Z,3.98
2023-04-15T01:57:47.841Z,3.92
2023-04-15T02:02:53.139Z,3.87
2023-04-15T02:07:59.042Z,3.65
2023-04-15T02:13:05.775Z,3.70
2023-04-15T02:18:10.965Z,3.65
2023-04-15T02:23:16.166Z,3.77
2023-04-15T02:28:23.912Z,3.94
2023-04-15T02:33:29.173Z,4.08
2023-04-15T02:38:34.390Z,3.66
2023-04-15T02:43:41.232Z,3.41
2023-04-15T02:48:47.946Z,3.25
2023-04-15T02:53:53.179Z,3.05
2023-04-15T02:59:00.135Z,2.76
2023-04-15T03:04:05.730Z,3.01
2023-04-15T03:09:14.180Z,2.45
2023-04-15T03:14:20.821Z,2.55
2023-04-15T03:19:29.160Z,2.49
2023-04-15T03:24:40.155Z,2.35
2023-04-15T03:29:46.873Z,2.22
2023-04-15T03:34:54.674Z,2.34
2023-04-15T03:39:59.928Z,2.18
2023-04-15T03:45:07.746Z,2.23
2023-04-15T03:50:13.033Z,2.13
2023-04-15T03:55:18.426Z,2.36
2023-04-15T04:00:25.517Z,2.20
2023-04-15T04:05:30.925Z,2.39
2023-04-15T04:10:36.124Z,2.30
2023-04-15T04:15:42.869Z,2.54
2023-04-15T04:20:49.027Z,2.88
2023-04-15T04:25:54.341Z,3.69
2023-04-15T04:36:30.373Z,4.68
2023-04-15T04:41:37.273Z,5.12
2023-04-15T04:46:44.153Z,5.60
2023-04-15T04:51:49.477Z,5.82
2023-04-15T04:56:54.663Z,5.62
2023-04-15T05:02:01.535Z,5.43
2023-04-15T05:07:07.167Z,5.32
2023-04-15T05:12:15.099Z,5.45
2023-04-15T05:17:22.075Z,5.48
2023-04-15T05:22:27.520Z,6.11
2023-04-15T05:27:32.737Z,7.26
2023-04-15T05:32:39.321Z,7.79
2023-04-15T05:37:44.705Z,8.26
2023-04-15T05:42:49.894Z,8.49
2023-04-15T05:47:56.815Z,8.95
2023-04-15T05:53:02.144Z,9.24
2023-04-15T05:58:07.422Z,9.76
2023-04-15T06:03:14.130Z,9.62
2023-04-15T06:08:19.493Z,9.41
2023-04-15T06:18:54.702Z,10.67
2023-04-15T06:24:01.576Z,10.57
2023-04-15T06:29:06.842Z,11.37
2023-04-15T06:34:13.471Z,11.48
2023-04-15T06:39:18.762Z,12.38
2023-04-15T06:44:23.996Z,12.75
2023-04-15T06:49:30.719Z,12.63
2023-04-15T06:54:35.998Z,12.86
2023-04-15T06:59:41.373Z,13.97
2023-04-15T07:04:48.555Z,13.59
2023-04-15T07:09:53.829Z,13.83
2023-04-15T07:14:59.076Z,14.35
2023-04-15T07:20:06.187Z,14.28
2023-04-15T07:25:11.431Z,14.35
2023-04-15T07:30:16.991Z,15.01
2023-04-15T07:35:23.818Z,15.08
2023-04-15T07:40:32.217Z,14.84
2023-04-15T07:46:02.908Z,15.13
2023-04-15T07:51:10.905Z,14.96
2023-04-15T07:56:16.249Z,14.99
2023-04-15T08:01:21.649Z,14.40
2023-04-15T08:06:29.005Z,14.21
2023-04-15T08:11:33.888Z,14.46
2023-04-15T08:16:39.331Z,15.37
2023-04-15T08:21:49.391Z,15.43
2023-04-15T08:26:54.645Z,15.54
2023-04-15T08:32:01.023Z,15.90
2023-04-15T08:37:07.654Z,15.37
2023-04-15T08:42:17.072Z,15.62
2023-04-15T08:47:25.118Z,15.14
2023-04-15T08:52:32.511Z,16.61
2023-04-15T08:57:39.986Z,17.40
2023-04-15T09:02:45.580Z,17.67
2023-04-15T09:07:53.335Z,17.69
2023-04-15T09:12:58.874Z,18.05
2023-04-15T09:18:04.295Z,18.05
2023-04-15T09:23:17.773Z,18.43
2023-04-15T09:28:27.274Z,17.63
2023-04-15T09:33:32.879Z,17.80
2023-04-15T09:38:56.431Z,19.13
2023-04-15T09:44:02.005Z,19.70
2023-04-15T09:49:10.341Z,18.19
2023-04-15T09:54:21.023Z,18.84
2023-04-15T09:59:26.330Z,18.27
2023-04-15T10:04:33.228Z,19.36
2023-04-15T10:09:40.319Z,18.58
2023-04-15T10:14:45.765Z,19.19
2023-04-15T10:19:54.247Z,21.05
2023-04-15T10:25:01.311Z,21.21
2023-04-15T10:30:06.859Z,20.38
2023-04-15T10:35:12.692Z,20.72
2023-04-15T10:40:31.618Z,19.71
2023-04-15T10:45:38.373Z,20.06
2023-04-15T10:50:57.908Z,18.64
2023-04-15T10:56:06.057Z,18.73
2023-04-15T11:01:12.429Z,19.09
2023-04-15T11:06:17.699Z,18.75
2023-04-15T11:11:24.404Z,19.71
2023-04-15T11:16:29.667Z,19.09
2023-04-15T11:21:35.812Z,18.09
2023-04-15T11:26:42.319Z,17.96
2023-04-15T11:31:49.870Z,17.58
2023-04-15T11:36:58.402Z,18.72
2023-04-15T11:42:05.119Z,20.65
2023-04-15T11:47:24.278Z,20.67
2023-04-15T11:52:29.638Z,21.60
2023-04-15T11:57:37.672Z,21.08
2023-04-15T12:02:41.635Z,21.30
2023-04-15T12:08:00.703Z,19.49
2023-04-15T12:13:09.649Z,19.42
2023-04-15T12:18:19.281Z,18.12
2023-04-15T12:23:23.245Z,18.41
2023-04-15T12:28:32.033Z,18.12
2023-04-15T12:33:36.253Z,18.34
2023-04-15T12:38:40.296Z,18.30
2023-04-15T12:43:47.192Z,18.09
2023-04-15T12:48:52.048Z,17.90
2023-04-15T12:53:55.968Z,18.05
2023-04-15T12:59:01.288Z,18.28
2023-04-15T13:04:05.927Z,18.35
2023-04-15T13:09:10.384Z,18.11
2023-04-15T13:14:15.971Z,17.54
2023-04-15T13:19:19.836Z,17.92
2023-04-15T13:24:23.755Z,17.87
2023-04-15T13:29:29.025Z,17.83
2023-04-15T13:34:32.965Z,18.61
2023-04-15T13:39:37.068Z,18.84
2023-04-15T13:44:42.326Z,19.54
2023-04-15T13:49:46.367Z,19.18
2023-04-15T13:55:18.298Z,17.99
2023-04-15T14:00:16.318Z,18.06
2023-04-15T14:05:20.511Z,17.85
2023-04-15T14:10:24.541Z,17.62
2023-04-15T14:15:29.822Z,17.76
2023-04-15T14:20:33.713Z,17.72
2023-04-15T14:25:39.285Z,17.54
2023-04-15T14:30:44.723Z,17.06
2023-04-15T14:35:48.660Z,16.94
2023-04-15T14:40:52.621Z,16.58
2023-04-15T14:45:58.102Z,16.79
2023-04-15T14:51:02.266Z,16.99
2023-04-15T14:56:06.689Z,17.02
2023-04-15T15:01:12.470Z,17.04
2023-04-15T15:06:16.496Z,16.82
2023-04-15T15:11:21.047Z,16.85
2023-04-15T15:16:26.871Z,16.47
2023-04-15T15:21:31.267Z,16.80
2023-04-15T15:26:35.266Z,15.72
2023-04-15T15:31:40.609Z,15.60
2023-04-15T15:36:44.497Z,15.69
2023-04-15T15:41:48.790Z,15.40
2023-04-15T15:46:54.173Z,15.16
2023-04-15T15:51:58.190Z,15.08
2023-04-15T15:57:02.271Z,15.26
2023-04-15T16:02:08.582Z,15.06
2023-04-15T16:07:13.134Z,15.12
2023-04-15T16:12:17.109Z,14.74
2023-04-15T16:17:22.499Z,14.86
2023-04-15T16:22:26.883Z,14.63
2023-04-15T16:27:30.920Z,14.48
2023-04-15T16:32:36.195Z,14.26
2023-04-15T16:37:40.166Z,13.74
2023-04-15T16:42:44.518Z,13.38
2023-04-15T16:47:49.850Z,12.99
2023-04-15T16:52:54.132Z,12.66
2023-04-15T16:58:01.485Z,12.41
2023-04-15T17:03:08.909Z,12.31
2023-04-15T17:08:14.296Z,12.16
2023-04-15T17:13:18.281Z,12.00
2023-04-15T17:18:23.645Z,11.84
2023-04-15T17:23:40.712Z,11.54
2023-04-15T17:28:44.751Z,11.28
2023-04-15T17:34:00.836Z,11.21
2023-04-15T17:39:32.208Z,10.97
2023-04-15T17:44:55.971Z,10.84
2023-04-15T17:50:21.116Z,10.68
2023-04-15T17:55:44.854Z,10.68
2023-04-15T18:01:08.606Z,10.61
2023-04-15T18:06:33.790Z,10.56
2023-04-15T18:11:57.853Z,10.67
2023-04-15T18:17:21.735Z,10.65
2023-04-15T18:22:46.859Z,10.66
2023-04-15T18:27:50.943Z,10.62
2023-04-15T18:32:57.616Z,10.42
2023-04-15T18:38:02.989Z,10.28
2023-04-15T18:43:09.455Z,10.15
2023-04-15T18:48:14.315Z,10.12
2023-04-15T18:53:19.716Z,10.06
2023-04-15T18:58:23.783Z,9.95
2023-04-15T19:03:27.810Z,9.98
2023-04-15T19:08:33.656Z,9.81
2023-04-15T19:13:37.529Z,9.73
2023-04-15T19:18:41.403Z,9.71
2023-04-15T19:23:48.164Z,9.66
2023-04-15T19:28:54.923Z,9.63
2023-04-15T19:33:58.785Z,9.60
2023-04-15T19:39:06.208Z,9.70
2023-04-15T19:44:12.838Z,9.88
2023-04-15T19:49:16.969Z,9.88
2023-04-15T19:54:22.808Z,9.88
2023-04-15T19:59:26.865Z,9.91
2023-04-15T20:04:30.785Z,9.97
2023-04-15T20:09:36.234Z,10.04
2023-04-15T20:14:40.245Z,10.02
2023-04-15T20:19:44.157Z,10.03
2023-04-15T20:24:49.407Z,10.09
2023-04-15T20:29:53.401Z,10.10
2023-04-15T20:34:57.386Z,10.09
2023-04-15T20:40:03.100Z,10.06
2023-04-15T20:45:08.451Z,10.01
2023-04-15T20:50:14.551Z,10.12
2023-04-15T20:55:20.055Z,9.91
2023-04-15T21:00:24.072Z,9.77
2023-04-15T21:05:28.189Z,9.68
2023-04-15T21:10:35.370Z,9.71
2023-04-15T21:15:40.198Z,9.63
2023-04-15T21:20:44.171Z,9.74
2023-04-15T21:25:49.567Z,9.90
2023-04-15T21:30:53.458Z,10.00
2023-04-15T21:35:57.395Z,10.04
2023-04-15T21:41:06.517Z,10.16
2023-04-15T21:46:21.340Z,10.16
2023-04-15T21:51:28.782Z,10.17
2023-04-15T21:56:34.128Z,10.16
2023-04-15T22:01:38.270Z,10.11
2023-04-15T22:06:42.229Z,9.94
2023-04-15T22:11:47.498Z,9.69
2023-04-15T22:16:51.640Z,9.76
2023-04-15T22:21:56.421Z,9.59
2023-04-15T22:27:02.794Z,9.47
2023-04-15T22:32:07.135Z,9.46
2023-04-15T22:42:16.925Z,9.19
2023-04-15T22:47:20.970Z,8.90
2023-04-15T22:52:30.704Z,8.87
2023-04-15T22:57:36.689Z,8.79
2023-04-15T23:02:40.723Z,8.72
2023-04-15T23:07:44.836Z,8.75
2023-04-15T23:12:50.128Z,8.63
2023-04-15T23:17:54.155Z,8.60
2023-04-15T23:22:59.659Z,8.71
2023-04-15T23:28:04.972Z,8.88
2023-04-15T23:33:08.889Z,8.72
2023-04-15T23:38:12.783Z,8.72
2023-04-15T23:43:18.142Z,8.53
2023-04-15T23:48:23.681Z,8.47
2023-04-15T23:53:30.725Z,8.45
2023-04-15T23:58:36.078Z,8.41
